Terminal Aerodrome Forecast
Issued by NWS Key West, FL

Home | Current Version | Previous Version | Text Only | Print | Product List | Glossary On
Versions: 1 2 3 4 5 6 7 8 9 10 11 12 13 14 15 16 17 18 19 20 21 22 23 24 25 26 27 28 29 30 31 32 33 34 35 36 37 38 39 40
000
FTUS42 KKEY 281125
TAFEYW
TAF
KEYW 281125Z 2812/2912 19011KT P6SM SCT017
     FM281800 21008KT P6SM SCT017 SCT080 SCT250
     FM290000 22007KT P6SM SCT017 BKN080 BKN250
     FM290600 23010KT P6SM VCTS SCT017CB BKN080 OVC250=

USA.gov is the U.S. government's official web portal to all federal, state and local government web resources and services.